地図

経路データ

SID SEASON NUMBER BASIN SUBBASIN NAME ISO_TIME NATURE LAT LON WMO_WIND WMO_PRES WMO_AGENCY TRACK_TYPE DIST2LAND LANDFALL IFLAG USA_AGENCY USA_ATCF_ID USA_LAT USA_LON USA_RECORD USA_STATUS USA_WIND USA_PRES USA_SSHS USA_R34_NE USA_R34_SE USA_R34_SW USA_R34_NW USA_R50_NE USA_R50_SE USA_R50_SW USA_R50_NW USA_R64_NE USA_R64_SE USA_R64_SW USA_R64_NW USA_POCI USA_ROCI USA_RMW USA_EYE TOKYO_LAT TOKYO_LON TOKYO_GRADE TOKYO_WIND TOKYO_PRES TOKYO_R50_DIR TOKYO_R50_LONG TOKYO_R50_SHORT TOKYO_R30_DIR TOKYO_R30_LONG TOKYO_R30_SHORT TOKYO_LAND CMA_LAT CMA_LON CMA_CAT CMA_WIND CMA_PRES HKO_LAT HKO_LON HKO_CAT HKO_WIND HKO_PRES NEWDELHI_LAT NEWDELHI_LON NEWDELHI_GRADE NEWDELHI_WIND NEWDELHI_PRES NEWDELHI_CI NEWDELHI_DP NEWDELHI_POCI REUNION_LAT REUNION_LON REUNION_TYPE REUNION_WIND REUNION_PRES REUNION_TNUM REUNION_CI REUNION_RMW REUNION_R34_NE REUNION_R34_SE REUNION_R34_SW REUNION_R34_NW REUNION_R50_NE REUNION_R50_SE REUNION_R50_SW REUNION_R50_NW REUNION_R64_NE REUNION_R64_SE REUNION_R64_SW REUNION_R64_NW BOM_LAT BOM_LON BOM_TYPE BOM_WIND BOM_PRES BOM_TNUM BOM_CI BOM_RMW BOM_R34_NE BOM_R34_SE BOM_R34_SW BOM_R34_NW BOM_R50_NE BOM_R50_SE BOM_R50_SW BOM_R50_NW BOM_R64_NE BOM_R64_SE BOM_R64_SW BOM_R64_NW BOM_ROCI BOM_POCI BOM_EYE BOM_POS_METHOD BOM_PRES_METHOD NADI_LAT NADI_LON NADI_CAT NADI_WIND NADI_PRES WELLINGTON_LAT WELLINGTON_LON WELLINGTON_WIND WELLINGTON_PRES DS824_LAT DS824_LON DS824_STAGE DS824_WIND DS824_PRES TD9636_LAT TD9636_LON TD9636_STAGE TD9636_WIND TD9636_PRES TD9635_LAT TD9635_LON TD9635_WIND TD9635_PRES TD9635_ROCI NEUMANN_LAT NEUMANN_LON NEUMANN_CLASS NEUMANN_WIND NEUMANN_PRES MLC_LAT MLC_LON MLC_CLASS MLC_WIND MLC_PRES USA_GUST BOM_GUST BOM_GUST_PER REUNION_GUST REUNION_GUST_PER USA_SEAHGT USA_SEARAD_NE USA_SEARAD_SE USA_SEARAD_SW USA_SEARAD_NW STORM_SPEED STORM_DIR
1928125N11139 1928 29 WP MM NOT_NAMED 1928-05-03 21:00:00 NR 11.4000 138.900 main 1404 1346 __________O___ -1 11.4000 138.900 4 12 266
1928125N11139 1928 29 WP MM NOT_NAMED 1928-05-04 00:00:00 NR 11.3633 138.306 main 1346 1280 __________P___ -1 11.3633 138.306 4 12 267
1928125N11139 1928 29 WP MM NOT_NAMED 1928-05-04 03:00:00 NR 11.3409 137.709 main 1280 1215 __________P___ -1 11.3409 137.709 4 12 269
1928125N11139 1928 29 WP MM NOT_NAMED 1928-05-04 06:00:00 NR 11.3480 137.108 main 1215 1154 __________P___ -1 11.3480 137.108 4 12 273
1928125N11139 1928 29 WP MM NOT_NAMED 1928-05-04 09:00:00 NR 11.4000 136.500 main 1154 1092 __________O___ -1 11.4000 136.500 4 12 278
1928125N11139 1928 29 WP MM NOT_NAMED 1928-05-04 12:00:00 NR 11.5066 135.882 main 1092 1031 __________P___ -1 11.5066 135.882 4 12 282
1928125N11139 1928 29 WP MM NOT_NAMED 1928-05-04 15:00:00 NR 11.6546 135.258 main 1034 974 __________P___ -1 11.6546 135.258 4 13 285
1928125N11139 1928 29 WP MM NOT_NAMED 1928-05-04 18:00:00 NR 11.8253 134.629 main 964 901 __________P___ -1 11.8253 134.629 4 13 286
1928125N11139 1928 29 WP MM NOT_NAMED 1928-05-04 21:00:00 NR 12.0000 134.000 main 901 826 __________O___ -1 12.0000 134.000 4 13 284
1928125N11139 1928 29 WP MM NOT_NAMED 1928-05-05 00:00:00 NR 12.1505 133.302 main 828 765 __________P___ -1 12.1505 133.302 4 14 283
1928125N11139 1928 29 WP MM NOT_NAMED 1928-05-05 03:00:00 NR 12.3008 132.615 main 755 693 __________P___ -1 12.3008 132.615 4 13 283
1928125N11139 1928 29 WP MM NOT_NAMED 1928-05-05 06:00:00 NR 12.4506 131.996 main 695 646 __________P___ -1 12.4506 131.996 4 11 285
1928125N11139 1928 29 WP MM NOT_NAMED 1928-05-05 09:00:00 NR 12.6000 131.500 main 646 618 __________O___ -1 12.6000 131.500 4 8 290
1928125N11139 1928 29 WP MM NOT_NAMED 1928-05-05 12:00:00 NR 12.7246 131.211 main 618 611 __________P___ -1 12.7246 131.211 4 5 300
1928125N11139 1928 29 WP MM NOT_NAMED 1928-05-05 15:00:00 NR 12.8538 131.044 main 602 593 __________P___ -1 12.8538 131.044 4 4 316
1928125N11139 1928 29 WP MM NOT_NAMED 1928-05-05 18:00:00 NR 13.0061 130.930 main 593 584 __________P___ -1 13.0061 130.930 4 4 325
1928125N11139 1928 29 WP MM NOT_NAMED 1928-05-05 21:00:00 NR 13.2000 130.800 main 586 569 __________O___ -1 13.2000 130.800 4 6 321
1928125N11139 1928 29 WP MM NOT_NAMED 1928-05-06 00:00:00 NR 13.4855 130.538 main 561 546 __________P___ -1 13.4855 130.538 4 8 319
1928125N11139 1928 29 WP MM NOT_NAMED 1928-05-06 03:00:00 NR 13.8077 130.251 main 550 527 __________P___ -1 13.8077 130.251 4 9 319
1928125N11139 1928 29 WP MM NOT_NAMED 1928-05-06 06:00:00 NR 14.1261 129.963 main 531 517 __________P___ -1 14.1261 129.963 4 8 318
1928125N11139 1928 29 WP MM NOT_NAMED 1928-05-06 09:00:00 NR 14.4000 129.700 main 517 503 __________O___ -1 14.4000 129.700 4 6 315
1928125N11139 1928 29 WP MM NOT_NAMED 1928-05-06 12:00:00 NR 14.5792 129.500 main 509 497 __________P___ -1 14.5792 129.500 4 5 311
1928125N11139 1928 29 WP MM NOT_NAMED 1928-05-06 15:00:00 NR 14.7097 129.327 main 497 494 __________P___ -1 14.7097 129.327 4 4 306
1928125N11139 1928 29 WP MM NOT_NAMED 1928-05-06 18:00:00 NR 14.8104 129.166 main 494 484 __________P___ -1 14.8104 129.166 4 4 301
1928125N11139 1928 29 WP MM NOT_NAMED 1928-05-06 21:00:00 NR 14.9000 129.000 main 484 474 __________O___ -1 14.9000 129.000 4 4 297
1928125N11139 1928 29 WP MM NOT_NAMED 1928-05-07 00:00:00 NR 14.9910 128.795 main 474 466 __________P___ -1 14.9910 128.795 4 4 294
1928125N11139 1928 29 WP MM NOT_NAMED 1928-05-07 03:00:00 NR 15.0776 128.585 main 466 451 __________P___ -1 15.0776 128.585 4 4 295
1928125N11139 1928 29 WP MM NOT_NAMED 1928-05-07 06:00:00 NR 15.1754 128.382 main 454 438 __________P___ -1 15.1754 128.382 4 4 301
1928125N11139 1928 29 WP MM NOT_NAMED 1928-05-07 09:00:00 NR 15.3000 128.200 main 438 432 __________O___ -1 15.3000 128.200 4 4 315
1928125N11139 1928 29 WP MM NOT_NAMED 1928-05-07 12:00:00 NR 15.4629 128.082 main 436 426 __________P___ -1 15.4629 128.082 4 4 329
1928125N11139 1928 29 WP MM NOT_NAMED 1928-05-07 15:00:00 NR 15.6546 127.979 main 436 426 __________P___ -1 15.6546 127.979 4 5 333
1928125N11139 1928 29 WP MM NOT_NAMED 1928-05-07 18:00:00 NR 15.8691 127.863 main 437 428 __________P___ -1 15.8691 127.863 4 5 329
1928125N11139 1928 29 WP MM NOT_NAMED 1928-05-07 21:00:00 NR 16.1000 127.700 main 431 419 __________O___ -1 16.1000 127.700 4 7 312
1928125N11139 1928 29 WP MM NOT_NAMED 1928-05-08 00:00:00 NR 16.3280 127.342 main 411 402 __________P___ -1 16.3280 127.342 4 9 303
1928125N11139 1928 29 WP MM NOT_NAMED 1928-05-08 03:00:00 NR 16.5706 126.952 main 410 397 __________P___ -1 16.5706 126.952 4 8 306
1928125N11139 1928 29 WP MM NOT_NAMED 1928-05-08 06:00:00 NR 16.8277 126.636 main 398 398 __________P___ -1 16.8277 126.636 4 7 321
1928125N11139 1928 29 WP MM NOT_NAMED 1928-05-08 09:00:00 NR 17.1000 126.500 main 419 419 __________O___ -1 17.1000 126.500 4 6 8
1928125N11139 1928 29 WP MM NOT_NAMED 1928-05-08 12:00:00 NR 17.3944 126.720 main 448 448 __________P___ -1 17.3944 126.720 4 8 45
1928125N11139 1928 29 WP MM NOT_NAMED 1928-05-08 15:00:00 NR 17.7013 127.120 main 494 494 __________P___ -1 17.7013 127.120 4 10 53
1928125N11139 1928 29 WP MM NOT_NAMED 1928-05-08 18:00:00 NR 18.0073 127.586 main 552 552 __________P___ -1 18.0073 127.586 4 10 54
1928125N11139 1928 29 WP MM NOT_NAMED 1928-05-08 21:00:00 NR 18.3000 128.000 main 600 600 __________O___ -1 18.3000 128.000 4 8 48
1928125N11139 1928 29 WP MM NOT_NAMED 1928-05-09 00:00:00 NR 18.5314 128.202 main 622 622 __________P___ -1 18.5314 128.202 4 6 35
1928125N11139 1928 29 WP MM NOT_NAMED 1928-05-09 03:00:00 NR 18.7545 128.334 main 633 633 __________P___ -1 18.7545 128.334 4 5 24
1928125N11139 1928 29 WP MM NOT_NAMED 1928-05-09 06:00:00 NR 19.0003 128.424 main 645 645 __________P___ -1 19.0003 128.424 4 6 16
1928125N11139 1928 29 WP MM NOT_NAMED 1928-05-09 09:00:00 NR 19.3000 128.500 main 660 660 __________O___ -1 19.3000 128.500 4 7 10
1928125N11139 1928 29 WP MM NOT_NAMED 1928-05-09 12:00:00 NR 19.6799 128.552 main 677 677 __________P___ -1 19.6799 128.552 4 8 7
1928125N11139 1928 29 WP MM NOT_NAMED 1928-05-09 15:00:00 NR 20.1167 128.605 main 688 688 __________P___ -1 20.1167 128.605 4 9 9
1928125N11139 1928 29 WP MM NOT_NAMED 1928-05-09 18:00:00 NR 20.5953 128.705 main 714 714 __________P___ -1 20.5953 128.705 4 10 16
1928125N11139 1928 29 WP MM NOT_NAMED 1928-05-09 21:00:00 NR 21.1000 128.900 main 753 753 __________O___ -1 21.1000 128.900 4 11 29
1928125N11139 1928 29 WP MM NOT_NAMED 1928-05-10 00:00:00 NR 21.5844 129.288 main 814 814 __________P___ -1 21.5844 129.288 4 13 39
1928125N11139 1928 29 WP MM NOT_NAMED 1928-05-10 03:00:00 NR 22.0919 129.768 main 849 849 __________P___ -1 22.0919 129.768 4 14 41
1928125N11139 1928 29 WP MM NOT_NAMED 1928-05-10 06:00:00 NR 22.6282 130.263 main 881 871 __________P___ -1 22.6282 130.263 4 14 38
1928125N11139 1928 29 WP MM NOT_NAMED 1928-05-10 09:00:00 NR 23.2000 130.700 main 871 804 __________O___ -1 23.2000 130.700 4 14 28
1928125N11139 1928 29 WP MM NOT_NAMED 1928-05-10 12:00:00 NR 23.8172 130.958 main 804 738 __________P___ -1 23.8172 130.958 4 13 18
1928125N11139 1928 29 WP MM NOT_NAMED 1928-05-10 15:00:00 NR 24.4688 131.148 main 726 661 __________P___ -1 24.4688 131.148 4 14 14
1928125N11139 1928 29 WP MM NOT_NAMED 1928-05-10 18:00:00 NR 25.1361 131.314 main 661 585 __________P___ -1 25.1361 131.314 4 14 13
1928125N11139 1928 29 WP MM NOT_NAMED 1928-05-10 21:00:00 NR 25.8000 131.500 main 585 520 __________O___ -1 25.8000 131.500 4 13 14
1928125N11139 1928 29 WP MM NOT_NAMED 1928-05-11 00:00:00 NR 26.3846 131.653 main 522 469 __________P___ -1 26.3846 131.653 4 12 15
1928125N11139 1928 29 WP MM NOT_NAMED 1928-05-11 03:00:00 NR 26.9698 131.851 main 461 402 __________P___ -1 26.9698 131.851 4 13 21
1928125N11139 1928 29 WP MM NOT_NAMED 1928-05-11 06:00:00 NR 27.5953 132.172 main 406 357 __________P___ -1 27.5953 132.172 4 15 29
1928125N11139 1928 29 WP MM NOT_NAMED 1928-05-11 09:00:00 NR 28.3000 132.700 main 357 320 __________O___ -1 28.3000 132.700 4 20 37
1928125N11139 1928 29 WP MM NOT_NAMED 1928-05-11 12:00:00 NR 29.1736 133.547 main 317 317 __________P___ -1 29.1736 133.547 4 25 43
1928125N11139 1928 29 WP MM NOT_NAMED 1928-05-11 15:00:00 NR 30.1132 134.612 main 327 267 __________P___ -1 30.1132 134.612 4 27 46
1928125N11139 1928 29 WP MM NOT_NAMED 1928-05-11 18:00:00 NR 31.0454 135.798 main 267 196 __________P___ -1 31.0454 135.798 4 27 49
1928125N11139 1928 29 WP MM NOT_NAMED 1928-05-11 21:00:00 NR 31.9000 137.000 main 201 197 __________O___ -1 31.9000 137.000 4 24 53
1928125N11139 1928 29 WP MM NOT_NAMED 1928-05-12 00:00:00 NR 32.4739 138.072 main 229 180 __________P___ -1 32.4739 138.072 4 21 59
1928125N11139 1928 29 WP MM NOT_NAMED 1928-05-12 03:00:00 NR 32.9840 139.128 main 180 157 __________P___ -1 32.9840 139.128 4 21 58
1928125N11139 1928 29 WP MM NOT_NAMED 1928-05-12 06:00:00 NR 33.5521 140.169 main 147 128 __________P___ -1 33.5521 140.169 4 22 53
1928125N11139 1928 29 WP MM NOT_NAMED 1928-05-12 09:00:00 NR 34.3000 141.200 main 124 112 __________O___ -1 34.3000 141.200 4 26 42
1928125N11139 1928 29 WP MM NOT_NAMED 1928-05-12 12:00:00 NR 35.5041 142.330 main 128 128 __________P___ -1 35.5041 142.330 4 32 36
1928125N11139 1928 29 WP MM NOT_NAMED 1928-05-12 15:00:00 NR 36.8759 143.467 main 221 221 __________P___ -1 36.8759 143.467 4 33 33
1928125N11139 1928 29 WP MM NOT_NAMED 1928-05-12 18:00:00 NR 38.2341 144.549 main 250 250 __________P___ -1 38.2341 144.549 4 30 32
1928125N11139 1928 29 WP MM NOT_NAMED 1928-05-12 21:00:00 NR 39.4000 145.500 main 291 290 __________O___ -1 39.4000 145.500 4 22 33
1928125N11139 1928 29 WP MM NOT_NAMED 1928-05-13 00:00:00 NR 40.0735 146.076 main 314 297 __________P___ -1 40.0735 146.076 4 14 34
1928125N11139 1928 29 WP MM NOT_NAMED 1928-05-13 03:00:00 NR 40.5564 146.511 main 291 274 __________P___ -1 40.5564 146.511 4 11 37
1928125N11139 1928 29 WP MM NOT_NAMED 1928-05-13 06:00:00 NR 40.9870 146.987 main 274 255 __________P___ -1 40.9870 146.987 4 13 44
1928125N11139 1928 29 WP MM NOT_NAMED 1928-05-13 09:00:00 NR 41.5000 147.700 main 261 257 __________O___ -1 41.5000 147.700 4 20 48
1928125N11139 1928 29 WP MM NOT_NAMED 1928-05-13 12:00:00 NR 42.3415 148.979 main 292 265 __________P___ -1 42.3415 148.979 4 27 50
1928125N11139 1928 29 WP MM NOT_NAMED 1928-05-13 15:00:00 NR 43.2549 150.543 main 259 245 __________P___ -1 43.2549 150.543 4 30 53
1928125N11139 1928 29 WP MM NOT_NAMED 1928-05-13 18:00:00 NR 44.1387 152.239 main 255 253 __________P___ -1 44.1387 152.239 4 29 56
1928125N11139 1928 29 WP MM NOT_NAMED 1928-05-13 21:00:00 NR 44.9000 153.900 main 302 302 __________O___ -1 44.9000 153.900 4 26 59
1928125N11139 1928 29 WP MM NOT_NAMED 1928-05-14 00:00:00 NR 45.4782 155.378 main 391 391 __________P___ -1 45.4782 155.378 4 22 63
1928125N11139 1928 29 WP MM NOT_NAMED 1928-05-14 03:00:00 NR 45.9048 156.682 main 465 452 __________P___ -1 45.9048 156.682 4 19 67
1928125N11139 1928 29 WP MM NOT_NAMED 1928-05-14 06:00:00 NR 46.2298 157.869 main 460 453 __________P___ -1 46.2298 157.869 4 17 70
1928125N11139 1928 29 WP MM NOT_NAMED 1928-05-14 09:00:00 NR 46.5000 159.000 main 469 __________O___ -1 46.5000 159.000 4 16 71

デジタル台風データ・検索

IBTrACS Databaseについて

本データベースは、米国NOAAが公開する1842年以降の世界の熱帯低気圧のベストトラックデータアーカイブInternational Best Track Archive for Climate Stewardship (IBTrACS)を、ウェブで閲覧しやすい形式に変換したものです。

最終更新日:2021-12-01